createdAt,value
2018-08-09T00:01:36.111Z,72
2018-08-09T00:07:01.588Z,72
2018-08-09T00:12:32.160Z,72
2018-08-09T00:18:02.600Z,73
2018-08-09T00:23:32.244Z,73
2018-08-09T00:29:02.163Z,73
2018-08-09T00:34:32.438Z,73
2018-08-09T00:40:02.386Z,72
2018-08-09T00:45:31.664Z,72
2018-08-09T00:51:07.495Z,72
2018-08-09T00:56:31.811Z,72
2018-08-09T01:02:07.778Z,72
2018-08-09T01:07:32.980Z,72
2018-08-09T01:13:02.606Z,72
2018-08-09T01:18:33.190Z,72
2018-08-09T01:24:02.876Z,72
2018-08-09T01:29:38.611Z,72
2018-08-09T01:35:04.139Z,72
2018-08-09T01:40:33.524Z,72
2018-08-09T01:46:04.101Z,72
2018-08-09T01:51:34.702Z,72
2018-08-09T01:57:05.315Z,72
2018-08-09T02:02:40.919Z,72
2018-08-09T02:08:06.812Z,72
2018-08-09T02:13:37.087Z,72
2018-08-09T02:19:06.943Z,73
2018-08-09T02:24:36.264Z,73
2018-08-09T02:30:11.145Z,73
2018-08-09T02:35:40.535Z,73
2018-08-09T02:41:06.054Z,73
2018-08-09T02:46:35.693Z,73
2018-08-09T02:52:05.566Z,73
2018-08-09T02:57:40.898Z,73
2018-08-09T03:03:06.420Z,74
2018-08-09T03:08:36.964Z,74
2018-08-09T03:14:06.566Z,73
2018-08-09T03:19:36.171Z,74
2018-08-09T03:25:10.722Z,74
2018-08-09T03:30:36.338Z,74
2018-08-09T03:36:06.074Z,74
2018-08-09T03:41:35.396Z,74
2018-08-09T03:47:05.914Z,74
2018-08-09T03:52:40.546Z,75
2018-08-09T03:58:04.955Z,75
2018-08-09T04:03:35.229Z,75
2018-08-09T04:09:04.037Z,75
2018-08-09T04:14:33.771Z,75
2018-08-09T04:20:04.549Z,75
2018-08-09T04:25:34.846Z,74
2018-08-09T04:31:10.131Z,74
2018-08-09T04:36:34.925Z,75
2018-08-09T04:42:04.272Z,75
2018-08-09T04:47:34.801Z,75
2018-08-09T04:53:04.796Z,74
2018-08-09T04:58:34.113Z,74
2018-08-09T05:04:03.714Z,74
2018-08-09T05:09:34.044Z,75
2018-08-09T05:15:04.601Z,74
2018-08-09T05:20:39.553Z,74
2018-08-09T05:26:04.832Z,74
2018-08-09T05:31:35.351Z,74
2018-08-09T05:37:04.966Z,74
2018-08-09T05:42:39.693Z,74
2018-08-09T05:48:05.498Z,74
2018-08-09T05:53:35.848Z,74
2018-08-09T05:59:05.475Z,74
2018-08-09T06:04:36.067Z,74
2018-08-09T06:10:06.755Z,73
2018-08-09T06:15:36.433Z,73
2018-08-09T06:21:06.161Z,72
2018-08-09T06:26:42.185Z,72
2018-08-09T06:32:06.832Z,72
2018-08-09T06:37:36.553Z,72
2018-08-09T06:43:05.990Z,72
2018-08-09T06:48:35.720Z,72
2018-08-09T06:54:05.455Z,72
2018-08-09T06:59:36.183Z,72
2018-08-09T07:05:06.192Z,71
2018-08-09T07:10:41.289Z,71
2018-08-09T07:16:05.726Z,71
2018-08-09T07:21:41.236Z,70
2018-08-09T07:27:06.051Z,70
2018-08-09T07:32:36.886Z,70
2018-08-09T07:38:08.501Z,69
2018-08-09T07:43:38.886Z,69
2018-08-09T07:49:08.403Z,68
2018-08-09T07:54:38.314Z,68
2018-08-09T08:00:09.145Z,67
2018-08-09T08:05:40.322Z,67
2018-08-09T08:11:15.928Z,67
2018-08-09T08:16:40.915Z,66
2018-08-09T08:22:10.744Z,66
2018-08-09T08:27:40.976Z,66
2018-08-09T08:27:41.341Z,66
2018-08-09T08:33:10.893Z,65
2018-08-09T08:38:45.573Z,64
2018-08-09T08:44:11.612Z,64
2018-08-09T08:49:42.749Z,64
2018-08-09T08:55:13.563Z,63
2018-08-09T09:00:44.058Z,62
2018-08-09T09:06:13.579Z,61
2018-08-09T09:11:44.772Z,61
2018-08-09T09:17:15.919Z,61
2018-08-09T09:22:46.867Z,60
2018-08-09T09:28:17.758Z,60
2018-08-09T09:33:53.863Z,59
2018-08-09T09:39:19.939Z,59
2018-08-09T09:44:50.277Z,58
2018-08-09T09:50:26.452Z,57
2018-08-09T09:55:57.444Z,57
2018-08-09T10:01:23.543Z,57
2018-08-09T10:06:54.620Z,57
2018-08-09T10:12:25.822Z,56
2018-08-09T10:17:56.000Z,56
2018-08-09T10:23:32.116Z,56
2018-08-09T10:28:58.301Z,55
2018-08-09T10:34:33.526Z,54
2018-08-09T10:39:58.745Z,54
2018-08-09T10:39:59.162Z,54
2018-08-09T10:45:30.048Z,53
2018-08-09T10:51:05.633Z,53
2018-08-09T10:56:31.649Z,53
2018-08-09T11:02:03.471Z,53
2018-08-09T11:07:34.387Z,53
2018-08-09T11:13:09.900Z,53
2018-08-09T11:18:40.165Z,53
2018-08-09T11:24:05.401Z,53
2018-08-09T11:24:05.767Z,53
2018-08-09T11:29:35.983Z,52
2018-08-09T11:35:11.291Z,52
2018-08-09T11:40:42.679Z,52
2018-08-09T11:46:08.986Z,52
2018-08-09T11:51:39.042Z,53
2018-08-09T11:57:10.358Z,52
2018-08-09T12:02:46.120Z,52
2018-08-09T12:08:11.008Z,52
2018-08-09T12:13:41.409Z,52
2018-08-09T12:19:17.628Z,52
2018-08-09T12:24:43.000Z,52
2018-08-09T12:30:14.398Z,52
2018-08-09T12:35:45.753Z,52
2018-08-09T12:41:17.064Z,52
2018-08-09T12:46:48.359Z,52
2018-08-09T12:52:19.936Z,52
2018-08-09T12:57:50.985Z,52
2018-08-09T13:03:26.641Z,53
2018-08-09T13:08:57.582Z,53
2018-08-09T13:14:23.832Z,54
2018-08-09T13:19:55.388Z,54
2018-08-09T13:25:25.806Z,54
2018-08-09T13:31:01.915Z,54
2018-08-09T13:36:27.303Z,54
2018-08-09T13:42:02.470Z,54
2018-08-09T13:47:28.118Z,54
2018-08-09T13:52:58.172Z,54
2018-08-09T13:58:28.624Z,54
2018-08-09T14:03:58.772Z,54
2018-08-09T14:09:29.059Z,54
2018-08-09T14:15:04.382Z,53
2018-08-09T14:20:29.875Z,53
2018-08-09T14:26:05.435Z,54
2018-08-09T14:31:30.612Z,54
2018-08-09T14:37:01.018Z,54
2018-08-09T14:42:32.382Z,55
2018-08-09T14:48:03.794Z,56
2018-08-09T14:53:34.822Z,56
2018-08-09T14:59:06.050Z,57
2018-08-09T15:04:36.521Z,58
2018-08-09T15:10:06.470Z,60
2018-08-09T15:15:41.592Z,61
2018-08-09T15:21:07.995Z,61
2018-08-09T15:26:37.777Z,62
2018-08-09T15:32:08.119Z,62
2018-08-09T15:37:38.461Z,62
2018-08-09T15:43:08.037Z,62
2018-08-09T15:48:38.250Z,62
2018-08-09T15:54:13.952Z,62
2018-08-09T15:59:39.448Z,63
2018-08-09T16:05:14.546Z,64
2018-08-09T16:10:45.896Z,64
2018-08-09T16:16:11.967Z,65
2018-08-09T16:16:12.964Z,65
2018-08-09T16:21:42.681Z,65
2018-08-09T16:21:49.383Z,65
2018-08-09T16:27:18.740Z,66
2018-08-09T16:32:45.004Z,67
2018-08-09T16:38:14.699Z,66
2018-08-09T16:44:13.731Z,66
2018-08-09T16:49:15.669Z,66
2018-08-09T16:54:46.680Z,66
2018-08-09T17:00:18.315Z,66
2018-08-09T17:05:53.786Z,66
2018-08-09T17:11:23.817Z,66
2018-08-09T17:16:49.109Z,66
2018-08-09T17:22:18.927Z,66
2018-08-09T17:27:50.200Z,66
2018-08-09T17:33:25.989Z,66
2018-08-09T17:38:56.286Z,66
2018-08-09T17:44:20.970Z,67
2018-08-09T17:49:57.452Z,67
2018-08-09T17:55:22.004Z,67
2018-08-09T18:01:08.839Z,67
2018-08-09T18:06:27.660Z,67
2018-08-09T18:11:51.986Z,67
2018-08-09T18:17:22.622Z,67
2018-08-09T18:17:27.313Z,67
2018-08-09T18:22:58.037Z,68
2018-08-09T18:28:28.546Z,70
2018-08-09T18:33:52.882Z,72
2018-08-09T18:39:28.730Z,73
2018-08-09T18:44:53.576Z,74
2018-08-09T18:50:24.347Z,75
2018-08-09T18:55:54.084Z,75
2018-08-09T19:01:29.830Z,75
2018-08-09T19:07:01.424Z,76
2018-08-09T19:12:27.238Z,76
2018-08-09T19:17:57.309Z,76
2018-08-09T19:23:41.970Z,76
2018-08-09T19:28:57.614Z,77
2018-08-09T19:34:28.659Z,77
2018-08-09T19:39:58.525Z,77
2018-08-09T19:45:28.545Z,78
2018-08-09T19:50:58.923Z,78
2018-08-09T19:56:28.448Z,79
2018-08-09T20:01:58.403Z,79
2018-08-09T20:07:29.194Z,79
2018-08-09T20:12:59.779Z,80
2018-08-09T20:18:29.409Z,80
2018-08-09T20:24:20.315Z,80
2018-08-09T20:29:34.880Z,81
2018-08-09T20:35:05.706Z,81
2018-08-09T20:40:31.328Z,81
2018-08-09T20:46:02.061Z,81
2018-08-09T20:51:31.748Z,81
2018-08-09T20:57:02.483Z,81
2018-08-09T21:02:32.451Z,81
2018-08-09T21:08:02.913Z,81
2018-08-09T21:13:32.660Z,82
2018-08-09T21:19:08.396Z,82
2018-08-09T21:24:39.389Z,82
2018-08-09T21:30:04.805Z,82
2018-08-09T21:35:39.570Z,82
2018-08-09T21:41:09.258Z,83
2018-08-09T21:46:34.262Z,83
2018-08-09T21:52:04.687Z,83
2018-08-09T21:57:40.390Z,83
2018-08-09T22:03:05.130Z,83
2018-08-09T22:08:40.842Z,83
2018-08-09T22:14:09.989Z,83
2018-08-09T22:19:36.533Z,84
2018-08-09T22:25:07.337Z,84
2018-08-09T22:30:37.716Z,84
2018-08-09T22:36:07.492Z,84
2018-08-09T22:41:37.444Z,84
2018-08-09T22:47:07.127Z,84
2018-08-09T22:52:37.634Z,84
2018-08-09T22:58:12.331Z,84
2018-08-09T23:03:38.083Z,85
2018-08-09T23:09:08.781Z,85
2018-08-09T23:14:44.459Z,85
2018-08-09T23:20:15.611Z,85
2018-08-09T23:25:40.897Z,85
2018-08-09T23:31:11.630Z,85
2018-08-09T23:36:41.672Z,86
2018-08-09T23:42:12.075Z,86
2018-08-09T23:47:43.065Z,86
2018-08-09T23:53:13.859Z,86
2018-08-09T23:58:43.233Z,86
